Airfield :
LOGIN :

Register | Disclaimer

   EN    FR    IT 

 










Legend :    VFR   Marginal VFR   IFR   Intensive IFR   Very Intensive IFR
Visi :
Ceiling :
>= 8 km
>= 3000ft
5 to 8 km
1000 to 3000 ft
1500m to 5 km
500 to 1000 ft
800 to 1500m
200 to 500 ft
< 800m
< 200 ft
Symbols :   Thunderstorms  Fog  Heavy snow  Heavy precipitations  Wind > 20 kt
SIGMETs :     Misc.  Thunderstorms  Icing  Turbulence  Mountain Waves  Volcanic Ashes






- Airport Elevation : 233 ft
- IATA code : REU


LERS - Reus Tarragona

CURRENT METAR :
  • 092330Z AUTO 02003KT CAVOK 09/08 Q1022

EXPIRED METARs :
  • 092300Z AUTO 02003KT 350V060 CAVOK 10/07 Q1022
  • 092230Z AUTO 00000KT CAVOK 11/08 Q1023
  • 092200Z AUTO VRB01KT CAVOK 11/08 Q1023
  • 092130Z AUTO 02003KT CAVOK 10/09 Q1023
  • 092100Z AUTO VRB02KT 8000 NSC 09/08 Q1023

TAF TAF LERS
Valid from the 09 at 21:00 until the 10 at 21:00 UTC


092000Z 0921/1021 01004KT 9999 FEW030 TX19/1012Z TN09/1006Z
BECMG 1009/1012 14007KT



MET'MAP, your aeronautical weather chart ! - Copyright ORBIFLY December 2007 - Disclaimer

ORBIFLY MET'MAP TEAM :

Programming & Development : Alexandra Zaïnal
Concept & original design : Baudouin d'Aumeries
Assistance for programming : Marc-Olivier Méhu
Technical & hardware support : Manuel Goepfert

Contact : metmap@orbifly.com




SOURCES & CREDITS :

   NOAA